Time;durP1;ratioP1;P1;durP2;ratioP2;P2;SDS_P1;SDS_P2;PMS_P1;PMS_P2;Temp;Humidity;BMP_temperature;BMP_pressure;BME280_temperature;BME280_humidity;BME280_pressure;Samples;Min_cycle;Max_cycle;Signal;HPM_P1;HPM_P2
2021/03/10 00:00:06;;;;;;;14.87;9.77;;;5.10;99.90;;;;;;4996478;28;20564;-87
2021/03/10 00:02:33;;;;;;;17.50;10.40;;;5.10;99.90;;;;;;4996063;28;20430;-86
2021/03/10 00:04:59;;;;;;;13.43;9.60;;;5.20;99.90;;;;;;5013962;28;20500;-87
2021/03/10 00:07:27;;;;;;;14.57;10.07;;;5.20;99.90;;;;;;5012769;28;20560;-86
2021/03/10 00:09:54;;;;;;;14.93;9.90;;;5.20;99.90;;;;;;4993384;28;20646;-85
2021/03/10 00:12:20;;;;;;;14.30;9.20;;;5.20;99.90;;;;;;5013753;28;20556;-86
2021/03/10 00:14:45;;;;;;;16.50;9.60;;;5.20;99.90;;;;;;5013624;28;20505;-87
2021/03/10 00:17:11;;;;;;;15.30;8.80;;;5.20;99.90;;;;;;4995550;28;20429;-85
2021/03/10 00:19:36;;;;;;;15.50;10.60;;;5.20;99.90;;;;;;5013939;28;20177;-87
2021/03/10 00:22:03;;;;;;;18.30;12.30;;;5.20;99.90;;;;;;5013264;28;20512;-87
2021/03/10 00:24:28;;;;;;;15.67;9.40;;;5.20;99.90;;;;;;5013123;28;20274;-86
2021/03/10 00:26:54;;;;;;;13.97;9.87;;;5.10;99.90;;;;;;4995949;28;21082;-85
2021/03/10 00:29:19;;;;;;;15.87;11.70;;;5.10;99.90;;;;;;5013306;28;20253;-85
2021/03/10 00:31:48;;;;;;;13.10;9.63;;;5.20;99.90;;;;;;4989000;28;20222;-87
2021/03/10 00:34:13;;;;;;;13.13;9.57;;;5.20;99.90;;;;;;4973825;28;20176;-86
2021/03/10 00:36:39;;;;;;;14.57;9.50;;;5.20;99.90;;;;;;4974627;28;20451;-86
2021/03/10 00:39:04;;;;;;;11.37;8.50;;;5.20;99.90;;;;;;4975402;28;20164;-86
2021/03/10 00:41:30;;;;;;;12.47;9.17;;;5.30;99.90;;;;;;4993804;28;20179;-87
2021/03/10 00:43:56;;;;;;;16.33;10.77;;;5.30;99.90;;;;;;4993494;28;20253;-87
2021/03/10 00:46:21;;;;;;;19.30;9.63;;;5.30;99.90;;;;;;4974524;28;20204;-87
2021/03/10 00:48:47;;;;;;;16.80;10.40;;;5.30;99.90;;;;;;4976786;28;20260;-87
2021/03/10 00:51:12;;;;;;;18.20;11.40;;;5.30;99.90;;;;;;4991071;28;20167;-87
2021/03/10 00:53:38;;;;;;;13.60;9.77;;;5.30;99.90;;;;;;4993520;28;20172;-87
2021/03/10 00:56:04;;;;;;;17.43;10.83;;;5.20;99.90;;;;;;4993676;28;20520;-86
2021/03/10 00:58:29;;;;;;;14.70;9.50;;;5.20;99.90;;;;;;4993482;28;20640;-87
2021/03/10 01:00:55;;;;;;;14.70;9.67;;;5.30;99.90;;;;;;4973431;28;20258;-87
2021/03/10 01:03:20;;;;;;;14.80;10.10;;;5.20;99.90;;;;;;4976015;28;20178;-87
2021/03/10 01:05:46;;;;;;;12.77;9.30;;;5.20;99.90;;;;;;4976376;28;20539;-86
2021/03/10 01:08:21;;;;;;;16.30;10.00;;;5.20;44.30;;;;;;4975807;28;20176;-87
2021/03/10 01:10:47;;;;;;;14.70;9.50;;;5.20;1.00;;;;;;4975754;28;20173;-87
2021/03/10 01:13:14;;;;;;;12.23;9.57;;;5.20;1.00;;;;;;4972994;28;20426;-86
2021/03/10 01:15:39;;;;;;;18.63;8.07;;;5.20;1.00;;;;;;4971056;28;20417;-86
2021/03/10 01:18:05;;;;;;;14.20;9.03;;;5.10;1.00;;;;;;4975942;28;20423;-86
2021/03/10 01:20:32;;;;;;;13.33;9.10;;;5.10;1.00;;;;;;4975720;28;20579;-87
2021/03/10 01:22:58;;;;;;;13.97;9.70;;;5.10;1.00;;;;;;4993631;28;20198;-86
2021/03/10 01:25:27;;;;;;;12.87;8.83;;;5.10;1.00;;;;;;4976288;28;20419;-86
2021/03/10 01:27:55;;;;;;;14.03;9.37;;;5.10;1.00;;;;;;4990871;28;20234;-86
2021/03/10 01:30:21;;;;;;;12.83;9.03;;;5.10;1.00;;;;;;4992812;28;20499;-86
2021/03/10 01:32:49;;;;;;;12.73;10.00;;;5.10;1.00;;;;;;4990160;28;20469;-86
2021/03/10 01:35:15;;;;;;;14.50;10.43;;;5.10;1.00;;;;;;5013187;28;20851;-86
2021/03/10 01:37:43;;;;;;;16.70;9.00;;;5.10;1.00;;;;;;5013468;28;20482;-86
2021/03/10 01:40:14;;;;;;;14.90;8.93;;;5.10;1.00;;;;;;4995770;28;20182;-87
2021/03/10 01:42:40;;;;;;;10.73;8.70;;;5.10;1.00;;;;;;5013710;28;20444;-87
2021/03/10 01:45:09;;;;;;;14.07;8.70;;;5.10;1.00;;;;;;5013429;28;20421;-87
2021/03/10 01:47:38;;;;;;;13.10;8.73;;;5.10;1.00;;;;;;4995566;28;20213;-87
2021/03/10 01:50:05;;;;;;;13.60;9.07;;;5.00;1.00;;;;;;5013608;28;20425;-88
2021/03/10 01:52:31;;;;;;;14.07;8.17;;;5.00;99.90;;;;;;5013528;28;20432;-87
2021/03/10 01:54:57;;;;;;;14.30;10.50;;;5.00;99.90;;;;;;4996005;28;20428;-88
2021/03/10 01:57:22;;;;;;;14.57;9.13;;;4.90;99.90;;;;;;5013493;28;20428;-87
2021/03/10 01:59:49;;;;;;;11.33;8.43;;;4.90;99.90;;;;;;4995640;28;20173;-87
2021/03/10 02:02:14;;;;;;;17.57;8.77;;;4.90;99.90;;;;;;4996087;28;20183;-87
2021/03/10 02:04:40;;;;;;;15.57;8.70;;;4.80;99.90;;;;;;4996131;28;20942;-86
2021/03/10 02:07:51;;;;;;;13.07;8.80;;;4.80;99.90;;;;;;5013337;28;20219;-86
2021/03/10 02:10:41;;;;;;;13.50;8.03;;;4.80;1.00;;;;;;4988543;28;20472;-89
2021/03/10 02:13:16;;;;;;;14.60;9.70;;;4.90;1.00;;;;;;5013444;28;20425;-88
2021/03/10 02:15:55;;;;;;;14.00;8.30;;;4.90;1.00;;;;;;5012826;28;20417;-88
2021/03/10 02:18:27;;;;;;;12.47;9.50;;;4.90;1.00;;;;;;5013058;28;20426;-86
2021/03/10 02:20:58;;;;;;;10.80;8.30;;;4.90;1.00;;;;;;5013027;28;20560;-85
2021/03/10 02:23:50;;;;;;;12.90;8.93;;;4.90;1.00;;;;;;5012902;28;20426;-85
2021/03/10 02:26:28;;;;;;;11.20;8.37;;;4.90;1.00;;;;;;4995449;28;20958;-86
2021/03/10 02:29:00;;;;;;;11.57;8.27;;;4.90;1.00;;;;;;5013140;28;20445;-88
2021/03/10 02:31:28;;;;;;;14.13;8.70;;;4.80;1.00;;;;;;5014860;28;20449;-85
2021/03/10 02:33:54;;;;;;;10.17;7.10;;;4.90;1.00;;;;;;4998916;28;20433;-86
2021/03/10 02:36:21;;;;;;;12.53;8.37;;;4.80;99.90;;;;;;4999294;28;20453;-86
2021/03/10 02:38:50;;;;;;;13.27;8.90;;;4.80;1.00;;;;;;5016840;28;20512;-85
2021/03/10 02:41:18;;;;;;;12.00;7.53;;;4.80;1.00;;;;;;5000101;28;20422;-85
2021/03/10 02:43:46;;;;;;;12.23;8.60;;;4.80;1.00;;;;;;5017982;28;20413;-85
2021/03/10 02:46:14;;;;;;;14.33;9.60;;;4.80;1.00;;;;;;5000303;28;20835;-85
2021/03/10 02:48:42;;;;;;;13.13;8.80;;;4.80;1.00;;;;;;5001700;28;20452;-86
2021/03/10 02:51:08;;;;;;;12.37;8.07;;;4.80;1.00;;;;;;5016803;28;20497;-85
2021/03/10 02:53:37;;;;;;;12.97;8.90;;;4.70;1.00;;;;;;5016103;28;20776;-84
2021/03/10 02:56:03;;;;;;;12.80;8.10;;;4.70;1.00;;;;;;5016217;28;20836;-86
2021/03/10 02:58:28;;;;;;;10.90;7.90;;;4.60;1.00;;;;;;5016487;28;20413;-88
2021/03/10 03:00:55;;;;;;;16.50;9.80;;;4.50;1.00;;;;;;5014954;28;20426;-87
2021/03/10 03:03:20;;;;;;;10.07;8.33;;;4.40;1.00;;;;;;5016289;28;20628;-87
2021/03/10 03:05:46;;;;;;;13.77;7.93;;;4.40;1.00;;;;;;4998300;28;20418;-87
2021/03/10 03:08:14;;;;;;;13.60;8.87;;;4.30;1.00;;;;;;4998518;28;20187;-87
2021/03/10 03:10:41;;;;;;;14.50;9.03;;;4.20;1.00;;;;;;4998527;28;20178;-87
2021/03/10 03:13:11;;;;;;;13.73;9.23;;;4.20;1.00;;;;;;4998484;28;20418;-85
2021/03/10 03:15:38;;;;;;;10.00;8.40;;;4.30;1.00;;;;;;5015397;28;20475;-85
2021/03/10 03:18:05;;;;;;;10.40;8.40;;;4.30;1.00;;;;;;4998183;28;20955;-87
2021/03/10 03:20:37;;;;;;;15.43;8.93;;;4.30;1.00;;;;;;5016102;28;20414;-89
2021/03/10 03:23:05;;;;;;;11.40;7.87;;;4.40;1.00;;;;;;5015703;28;20790;-86
2021/03/10 03:25:35;;;;;;;13.93;8.40;;;4.40;57.20;;;;;;5015498;28;20451;-87
2021/03/10 03:28:06;;;;;;;12.67;8.20;;;4.40;26.60;;;;;;5015525;28;20430;-87
2021/03/10 03:30:38;;;;;;;9.97;6.90;;;4.40;1.00;;;;;;4997819;28;20525;-88
2021/03/10 03:33:19;;;;;;;15.57;7.97;;;4.40;1.00;;;;;;4997699;28;21023;-88
2021/03/10 03:35:50;;;;;;;11.77;8.60;;;4.40;1.00;;;;;;4998196;28;20516;-87
2021/03/10 03:38:16;;;;;;;11.00;6.60;;;4.40;1.00;;;;;;5016199;28;20414;-89
2021/03/10 03:40:47;;;;;;;9.93;7.37;;;4.40;1.00;;;;;;4998474;28;21018;-88
2021/03/10 03:43:18;;;;;;;10.77;7.47;;;4.30;1.00;;;;;;4997285;28;20426;-88
2021/03/10 03:45:45;;;;;;;10.63;7.20;;;4.20;1.00;;;;;;5015171;28;20414;-86
2021/03/10 03:48:11;;;;;;;10.10;7.57;;;4.20;1.00;;;;;;5015742;28;20433;-89
2021/03/10 03:50:40;;;;;;;9.90;7.40;;;4.10;1.00;;;;;;5015611;28;20414;-86
2021/03/10 03:53:05;;;;;;;11.00;6.83;;;4.00;1.00;;;;;;5015198;28;20426;-87
2021/03/10 03:55:31;;;;;;;10.17;7.40;;;4.00;1.00;;;;;;5013777;28;20421;-88
2021/03/10 03:57:57;;;;;;;11.10;6.83;;;3.90;1.00;;;;;;5015514;28;20170;-87
2021/03/10 04:00:27;;;;;;;10.17;7.10;;;3.80;1.00;;;;;;5014833;28;20189;-85
2021/03/10 04:02:53;;;;;;;9.10;7.40;;;3.80;1.00;;;;;;5015410;28;20166;-85
2021/03/10 04:05:20;;;;;;;7.63;5.90;;;3.70;1.00;;;;;;5015290;28;20944;-85
2021/03/10 04:07:57;;;;;;;10.20;6.47;;;3.60;1.00;;;;;;4997546;28;20213;-89
2021/03/10 04:10:31;;;;;;;9.97;6.33;;;3.40;1.00;;;;;;4997721;28;20416;-89
2021/03/10 04:13:07;;;;;;;11.40;7.07;;;3.50;1.00;;;;;;4997492;28;20428;-89
2021/03/10 04:15:34;;;;;;;9.00;6.80;;;3.30;1.00;;;;;;4997276;28;20414;-87
2021/03/10 04:18:00;;;;;;;8.97;7.03;;;3.30;7.90;;;;;;4997667;28;20425;-86
2021/03/10 04:20:26;;;;;;;8.87;7.53;;;3.30;56.90;;;;;;4997453;28;21000;-88
2021/03/10 04:22:52;;;;;;;12.50;6.53;;;3.30;99.90;;;;;;5014798;28;21024;-88
2021/03/10 04:25:19;;;;;;;9.70;6.40;;;3.30;99.90;;;;;;5014956;28;20414;-86
2021/03/10 04:27:44;;;;;;;8.20;6.17;;;3.30;99.90;;;;;;5014892;28;20513;-87
2021/03/10 04:30:11;;;;;;;7.50;5.77;;;;;;;;;;5014027;28;20409;-87
2021/03/10 04:32:40;;;;;;;11.70;6.30;;;3.20;99.90;;;;;;4995996;28;20286;-85
2021/03/10 04:35:07;;;;;;;7.00;5.00;;;3.20;38.20;;;;;;5014315;28;20950;-87
2021/03/10 04:37:33;;;;;;;7.87;5.07;;;3.10;7.50;;;;;;5014111;28;20757;-85
2021/03/10 04:39:58;;;;;;;9.90;5.50;;;3.10;1.00;;;;;;5014255;28;20422;-85
2021/03/10 04:42:24;;;;;;;10.67;6.63;;;3.00;1.00;;;;;;4996655;28;20923;-86
2021/03/10 04:44:50;;;;;;;6.60;4.70;;;3.00;1.00;;;;;;5012483;28;20184;-87
2021/03/10 04:47:15;;;;;;;13.73;5.70;;;3.00;1.00;;;;;;5014073;28;20701;-87
2021/03/10 04:49:41;;;;;;;7.50;5.73;;;2.90;1.00;;;;;;5013911;28;20199;-85
2021/03/10 04:52:07;;;;;;;8.40;5.73;;;2.90;1.00;;;;;;5013774;28;20171;-85
2021/03/10 04:54:32;;;;;;;7.70;5.83;;;2.90;4.20;;;;;;5013338;28;20189;-86
2021/03/10 04:56:58;;;;;;;10.73;6.80;;;2.90;2.40;;;;;;5013484;28;20555;-86
2021/03/10 04:59:24;;;;;;;8.13;5.30;;;2.90;81.00;;;;;;5012366;28;20184;-87
2021/03/10 05:01:50;;;;;;;7.33;5.70;;;2.90;76.60;;;;;;4996532;28;20180;-87
2021/03/10 05:04:15;;;;;;;7.97;5.70;;;2.80;62.60;;;;;;5014098;28;20428;-86
2021/03/10 05:06:44;;;;;;;8.70;5.60;;;2.80;99.90;;;;;;5013987;28;20222;-87
2021/03/10 05:09:10;;;;;;;9.30;5.80;;;2.80;99.90;;;;;;5014317;28;20171;-86
2021/03/10 05:11:35;;;;;;;7.77;4.40;;;2.70;99.90;;;;;;5014166;28;20418;-86
2021/03/10 05:14:02;;;;;;;9.10;5.33;;;2.60;99.90;;;;;;5014171;28;20176;-86
2021/03/10 05:16:28;;;;;;;7.43;5.53;;;2.50;99.90;;;;;;5013687;28;20628;-88
2021/03/10 05:18:53;;;;;;;8.37;5.10;;;2.50;99.90;;;;;;5014505;28;20410;-86
2021/03/10 05:21:19;;;;;;;10.63;5.50;;;2.30;99.90;;;;;;5013324;28;20173;-88
2021/03/10 05:23:45;;;;;;;13.60;5.20;;;2.20;99.90;;;;;;5014446;28;20242;-86
2021/03/10 05:26:14;;;;;;;7.17;5.40;;;2.10;99.90;;;;;;4997711;28;20191;-87
2021/03/10 05:28:40;;;;;;;5.27;4.40;;;2.10;99.90;;;;;;5015133;28;20203;-86
2021/03/10 05:31:07;;;;;;;9.10;5.90;;;2.00;99.90;;;;;;4996201;28;20429;-85
2021/03/10 05:33:34;;;;;;;6.60;5.77;;;2.00;99.90;;;;;;5013769;28;20469;-86
2021/03/10 05:36:00;;;;;;;7.60;5.57;;;2.00;99.90;;;;;;5013653;28;20413;-87
2021/03/10 05:38:25;;;;;;;9.10;5.57;;;1.90;99.90;;;;;;5013746;28;20441;-86
2021/03/10 05:40:51;;;;;;;7.23;4.90;;;1.90;99.90;;;;;;4996171;28;20414;-86
2021/03/10 05:43:18;;;;;;;11.73;5.90;;;1.90;99.90;;;;;;4996076;28;20663;-86
2021/03/10 05:45:44;;;;;;;7.30;5.20;;;1.90;99.90;;;;;;4995785;28;20175;-85
2021/03/10 05:48:10;;;;;;;7.83;5.40;;;1.90;99.90;;;;;;5013315;28;20414;-85
2021/03/10 05:50:37;;;;;;;10.13;6.63;;;2.00;99.90;;;;;;5013279;28;20418;-87
2021/03/10 05:53:03;;;;;;;5.57;3.83;;;2.00;99.90;;;;;;5013775;28;20426;-84
2021/03/10 05:55:32;;;;;;;5.43;3.87;;;2.00;99.90;;;;;;5013802;28;20756;-84
2021/03/10 05:57:57;;;;;;;6.63;4.27;;;2.00;99.90;;;;;;4995915;28;20411;-87
2021/03/10 06:00:24;;;;;;;13.20;6.40;;;2.00;99.90;;;;;;4995456;28;20933;-86
2021/03/10 06:02:51;;;;;;;8.23;5.60;;;2.00;99.90;;;;;;5012901;28;20258;-86
2021/03/10 06:05:21;;;;;;;6.13;4.10;;;2.00;99.90;;;;;;4996806;28;20934;-86
2021/03/10 06:08:02;;;;;;;10.00;5.00;;;2.00;99.90;;;;;;5016859;28;20462;-84
2021/03/10 06:10:48;;;;;;;9.13;5.00;;;2.10;99.90;;;;;;5016776;28;20829;-83
2021/03/10 06:13:28;;;;;;;6.30;4.70;;;2.20;99.90;;;;;;5016710;28;20410;-83
2021/03/10 06:15:57;;;;;;;5.43;4.07;;;2.30;99.90;;;;;;4998610;28;20420;-83
2021/03/10 06:18:31;;;;;;;7.10;5.03;;;2.30;78.80;;;;;;4998962;28;20427;-83
2021/03/10 06:21:09;;;;;;;6.13;4.87;;;2.30;47.20;;;;;;5016624;28;20919;-84
2021/03/10 06:23:50;;;;;;;5.33;4.47;;;2.40;20.90;;;;;;5016337;28;20502;-83
2021/03/10 06:26:27;;;;;;;8.40;4.23;;;2.50;1.00;;;;;;4998693;28;20502;-83
2021/03/10 06:28:54;;;;;;;6.83;5.07;;;2.60;1.00;;;;;;5016436;28;20990;-84
2021/03/10 06:31:41;;;;;;;10.63;4.40;;;2.70;1.00;;;;;;5016050;28;20422;-84
2021/03/10 06:34:10;;;;;;;10.13;5.93;;;2.80;1.00;;;;;;5016290;28;20453;-83
2021/03/10 06:36:47;;;;;;;5.73;5.10;;;2.90;1.00;;;;;;4998596;28;20930;-83
2021/03/10 06:39:24;;;;;;;7.67;3.73;;;3.10;1.00;;;;;;5016236;28;20413;-83
2021/03/10 06:41:50;;;;;;;9.60;4.77;;;3.20;1.00;;;;;;5016192;28;20822;-83
2021/03/10 06:44:27;;;;;;;7.80;4.43;;;3.20;99.90;;;;;;5015753;28;20416;-83
2021/03/10 06:46:56;;;;;;;6.93;4.03;;;3.30;99.90;;;;;;4998384;28;20614;-84
2021/03/10 06:49:23;;;;;;;7.03;4.10;;;3.50;99.90;;;;;;5016100;28;20416;-84
2021/03/10 06:51:58;;;;;;;6.90;4.27;;;3.60;9.70;;;;;;5015882;28;20484;-83
2021/03/10 06:54:25;;;;;;;6.23;4.20;;;3.70;1.00;;;;;;4998372;28;20780;-83
2021/03/10 06:57:17;;;;;;;7.23;4.03;;;3.70;99.90;;;;;;5014744;28;20461;-85
2021/03/10 06:59:47;;;;;;;5.97;4.00;;;3.50;99.90;;;;;;5011873;28;20425;-84
2021/03/10 07:02:23;;;;;;;5.40;4.30;;;3.40;99.90;;;;;;5015769;28;20423;-84
2021/03/10 07:04:57;;;;;;;7.33;5.30;;;3.40;99.90;;;;;;5015826;28;20506;-84
2021/03/10 07:07:24;;;;;;;7.90;4.23;;;3.50;99.90;;;;;;5015745;28;20531;-84
2021/03/10 07:09:50;;;;;;;6.27;4.50;;;3.50;99.90;;;;;;5015653;28;20414;-84
2021/03/10 07:12:21;;;;;;;7.73;4.40;;;3.50;99.90;;;;;;5015555;28;20476;-84
2021/03/10 07:14:47;;;;;;;5.43;3.63;;;3.40;31.20;;;;;;4997608;28;20994;-84
2021/03/10 07:17:21;;;;;;;4.07;3.67;;;3.40;98.00;;;;;;5015329;28;20457;-84
2021/03/10 07:19:48;;;;;;;5.53;3.23;;;3.40;96.50;;;;;;5015535;28;20765;-85
2021/03/10 07:22:30;;;;;;;6.10;4.17;;;3.30;99.90;;;;;;5015382;28;20421;-85
2021/03/10 07:25:01;;;;;;;5.43;3.30;;;3.40;99.90;;;;;;4997596;28;20426;-83
2021/03/10 07:27:35;;;;;;;6.60;3.70;;;3.40;99.90;;;;;;5015332;28;20472;-85
2021/03/10 07:30:01;;;;;;;8.43;4.57;;;3.40;99.90;;;;;;5014988;28;20409;-85
2021/03/10 07:32:28;;;;;;;5.83;3.70;;;3.50;99.90;;;;;;4987480;28;20844;-85
2021/03/10 07:35:20;;;;;;;7.17;3.40;;;3.50;99.90;;;;;;4978105;28;20429;-85
2021/03/10 07:37:53;;;;;;;8.13;4.47;;;3.50;99.90;;;;;;4991689;28;20438;-83
2021/03/10 07:40:20;;;;;;;7.50;4.40;;;3.60;99.90;;;;;;4995348;28;20472;-83
2021/03/10 07:42:54;;;;;;;9.50;3.97;;;3.60;99.90;;;;;;4978054;28;20430;-82
2021/03/10 07:45:21;;;;;;;5.20;4.43;;;3.60;1.00;;;;;;4994361;28;20512;-84
2021/03/10 07:47:57;;;;;;;5.40;4.10;;;3.60;1.00;;;;;;4994672;28;20870;-83
2021/03/10 07:50:40;;;;;;;6.30;5.27;;;3.60;1.00;;;;;;4994911;28;20446;-82
2021/03/10 07:53:06;;;;;;;7.90;4.17;;;3.70;1.00;;;;;;4989422;28;20441;-82
2021/03/10 07:55:41;;;;;;;8.77;4.40;;;3.70;1.00;;;;;;4992293;28;20918;-82
2021/03/10 07:58:07;;;;;;;9.00;4.73;;;3.70;37.10;;;;;;4977974;28;20425;-84
2021/03/10 08:00:37;;;;;;;7.77;4.43;;;3.70;99.90;;;;;;4984787;28;20812;-83
2021/03/10 08:03:03;;;;;;;8.60;5.37;;;3.90;99.90;;;;;;4987853;28;20182;-86
2021/03/10 08:05:29;;;;;;;9.27;4.10;;;4.00;21.30;;;;;;4992981;28;20441;-85
2021/03/10 08:08:14;;;;;;;7.50;5.33;;;4.00;1.00;;;;;;4993563;28;20233;-84
2021/03/10 08:10:41;;;;;;;9.00;4.10;;;4.00;1.00;;;;;;4992751;28;20418;-84
2021/03/10 08:13:22;;;;;;;10.97;4.40;;;4.10;99.90;;;;;;4988997;28;20522;-85
2021/03/10 08:15:49;;;;;;;7.13;4.10;;;4.00;99.90;;;;;;4992873;28;20416;-85
2021/03/10 08:18:20;;;;;;;9.07;5.20;;;4.00;99.90;;;;;;4995371;28;20477;-88
2021/03/10 08:20:46;;;;;;;8.70;4.63;;;4.00;99.90;;;;;;4983734;28;20413;-86
2021/03/10 08:23:12;;;;;;;6.30;4.97;;;4.00;99.90;;;;;;4995486;28;20426;-86
2021/03/10 08:25:37;;;;;;;8.97;6.07;;;4.10;99.90;;;;;;4995910;28;20410;-84
2021/03/10 08:28:15;;;;;;;9.70;4.87;;;4.20;99.90;;;;;;4974774;28;20207;-86
2021/03/10 08:30:42;;;;;;;7.93;4.63;;;4.30;99.90;;;;;;4992741;28;20180;-88
2021/03/10 08:33:10;;;;;;;9.90;5.63;;;4.30;99.90;;;;;;4990633;28;20462;-85
2021/03/10 08:35:36;;;;;;;8.40;5.50;;;4.50;99.90;;;;;;4994708;28;20418;-86
2021/03/10 08:38:04;;;;;;;10.70;5.83;;;4.60;99.90;;;;;;5012130;28;20810;-89
2021/03/10 08:40:32;;;;;;;7.03;4.40;;;4.80;99.90;;;;;;4993890;28;20681;-84
2021/03/10 08:42:58;;;;;;;12.23;6.20;;;4.90;99.90;;;;;;4992870;28;20788;-83
2021/03/10 08:45:24;;;;;;;9.30;5.60;;;5.20;1.00;;;;;;5011144;28;20416;-83
2021/03/10 08:48:09;;;;;;;8.90;6.60;;;5.30;1.00;;;;;;5009562;28;20498;-83
2021/03/10 08:50:35;;;;;;;7.50;5.70;;;5.70;99.90;;;;;;5012758;28;20172;-87
2021/03/10 08:53:02;;;;;;;9.60;5.63;;;5.80;1.00;;;;;;5012850;28;20426;-87
2021/03/10 08:55:28;;;;;;;10.77;5.60;;;6.00;1.00;;;;;;5013419;28;20418;-89
2021/03/10 08:57:55;;;;;;;10.33;6.17;;;6.30;99.90;;;;;;5014067;28;20414;-87
2021/03/10 09:00:26;;;;;;;10.70;5.80;;;6.40;99.90;;;;;;4996545;28;20422;-87
2021/03/10 09:02:52;;;;;;;9.07;6.40;;;6.60;1.00;;;;;;4991050;28;20512;-88
2021/03/10 09:05:25;;;;;;;9.17;6.37;;;6.70;1.00;;;;;;4991621;28;20513;-86
2021/03/10 09:07:52;;;;;;;12.87;6.50;;;7.00;99.90;;;;;;5012260;28;20496;-87
2021/03/10 09:10:22;;;;;;;8.67;6.70;;;;;;;;;;4994043;28;20414;-88
2021/03/10 09:12:50;;;;;;;8.10;6.33;;;7.50;1.00;;;;;;4993963;28;20506;-86
2021/03/10 09:15:19;;;;;;;12.40;8.83;;;7.70;1.00;;;;;;4992215;28;20438;-87
2021/03/10 09:17:45;;;;;;;13.50;7.67;;;;;;;;;;5011833;28;20472;-88
2021/03/10 09:20:28;;;;;;;11.73;6.83;;;;;;;;;;4995594;28;20414;-87
2021/03/10 09:22:54;;;;;;;11.73;7.70;;;;;;;;;;4993668;28;20410;-87
2021/03/10 09:25:25;;;;;;;12.40;7.47;;;;;;;;;;4993054;28;20419;-86
2021/03/10 09:28:14;;;;;;;10.13;6.80;;;;;;;;;;4993210;28;20985;-86
2021/03/10 09:30:44;;;;;;;13.00;7.83;;;8.30;1.00;;;;;;4987981;28;20410;-86
2021/03/10 09:33:27;;;;;;;16.60;10.03;;;8.30;1.00;;;;;;4993279;28;20496;-85
2021/03/10 09:36:02;;;;;;;15.87;9.27;;;8.30;1.00;;;;;;5012331;28;20421;-87
2021/03/10 09:38:30;;;;;;;12.87;9.30;;;8.00;1.00;;;;;;5012234;28;20417;-85
2021/03/10 09:41:03;;;;;;;14.23;8.53;;;7.80;99.90;;;;;;4997032;28;20429;-86
2021/03/10 09:43:31;;;;;;;17.10;10.27;;;7.60;99.90;;;;;;4998427;28;20484;-87
2021/03/10 09:46:05;;;;;;;15.40;8.70;;;7.50;99.90;;;;;;4999018;28;20918;-88
2021/03/10 09:48:40;;;;;;;18.93;10.60;;;7.80;99.90;;;;;;5017789;28;20509;-90
2021/03/10 09:51:16;;;;;;;13.53;9.80;;;7.80;99.90;;;;;;4999606;28;20766;-90
2021/03/10 09:53:43;;;;;;;20.10;9.57;;;7.90;1.00;;;;;;4997949;28;20418;-90
2021/03/10 09:56:10;;;;;;;15.73;9.80;;;7.80;1.00;;;;;;4998072;28;20410;-85
2021/03/10 09:58:59;;;;;;;18.40;12.10;;;7.80;1.00;;;;;;4996360;28;20445;-85
2021/03/10 10:01:26;;;;;;;19.67;12.10;;;7.80;99.90;;;;;;4996296;28;20410;-85
2021/03/10 10:03:53;;;;;;;17.27;11.07;;;8.10;99.90;;;;;;4996241;28;20795;-85
2021/03/10 10:06:20;;;;;;;16.53;11.10;;;8.10;99.90;;;;;;4996648;28;20466;-86
2021/03/10 10:08:46;;;;;;;21.60;13.47;;;8.30;99.90;;;;;;4997270;28;20791;-85
2021/03/10 10:11:13;;;;;;;19.00;12.03;;;;;;;;;;4995785;28;20492;-86
2021/03/10 10:13:47;;;;;;;18.93;12.50;;;;;;;;;;4997085;28;20452;-89
2021/03/10 10:16:13;;;;;;;16.17;11.43;;;8.60;1.00;;;;;;5016827;28;20930;-86
2021/03/10 10:18:40;;;;;;;21.63;12.10;;;;;;;;;;5016771;28;20457;-89
2021/03/10 10:21:06;;;;;;;22.53;13.13;;;;;;;;;;5018809;28;20500;-89
2021/03/10 10:23:32;;;;;;;18.30;12.47;;;;;;;;;;5000412;28;20422;-88
2021/03/10 10:25:58;;;;;;;22.27;14.03;;;8.90;99.90;;;;;;5018258;28;20436;-88
2021/03/10 10:28:24;;;;;;;21.80;12.40;;;9.30;99.90;;;;;;5000000;28;20580;-86
2021/03/10 10:30:51;;;;;;;23.57;13.77;;;9.30;99.90;;;;;;4999991;28;20454;-89
2021/03/10 10:33:17;;;;;;;24.83;15.60;;;9.10;99.90;;;;;;5016123;28;20493;-87
2021/03/10 10:35:42;;;;;;;26.40;14.37;;;9.10;1.00;;;;;;5015472;28;20437;-86
2021/03/10 10:38:08;;;;;;;21.17;13.90;;;9.10;1.00;;;;;;4997712;28;20199;-87
2021/03/10 10:40:34;;;;;;;22.40;15.10;;;9.00;1.00;;;;;;4999817;28;20243;-86
2021/03/10 10:43:00;;;;;;;26.83;15.20;;;9.10;1.00;;;;;;5016483;28;20237;-87
2021/03/10 10:45:26;;;;;;;23.70;15.83;;;9.30;99.90;;;;;;4998870;28;20426;-85
2021/03/10 10:47:55;;;;;;;25.03;16.40;;;9.30;99.90;;;;;;5014434;28;20222;-85
2021/03/10 10:50:20;;;;;;;21.73;13.90;;;9.40;99.90;;;;;;5014250;28;20184;-87
2021/03/10 10:52:48;;;;;;;23.60;13.87;;;9.50;64.30;;;;;;5016026;28;21100;-86
2021/03/10 10:55:17;;;;;;;22.27;13.50;;;9.50;1.00;;;;;;4994623;28;20438;-86
2021/03/10 10:57:43;;;;;;;28.10;16.10;;;9.60;99.90;;;;;;5014487;28;20779;-85
2021/03/10 11:00:17;;;;;;;23.70;13.07;;;9.50;99.90;;;;;;4995055;28;20426;-89
2021/03/10 11:02:44;;;;;;;25.50;16.33;;;9.50;99.90;;;;;;4995251;28;20218;-88
2021/03/10 11:05:10;;;;;;;27.27;15.87;;;9.50;99.90;;;;;;5016628;28;20406;-88
2021/03/10 11:07:36;;;;;;;23.13;14.80;;;9.50;99.90;;;;;;5014874;28;20515;-88
2021/03/10 11:10:02;;;;;;;22.40;14.93;;;9.40;99.90;;;;;;5015256;28;20868;-88
2021/03/10 11:12:27;;;;;;;27.13;16.40;;;9.20;99.90;;;;;;4997635;28;20274;-86
2021/03/10 11:14:53;;;;;;;30.13;15.03;;;9.30;99.90;;;;;;5014638;28;20488;-83
2021/03/10 11:17:19;;;;;;;24.93;15.10;;;9.40;99.90;;;;;;5015228;28;20171;-88
2021/03/10 11:19:47;;;;;;;25.50;15.47;;;9.50;99.90;;;;;;5015109;28;20175;-85
2021/03/10 11:22:13;;;;;;;23.37;15.47;;;9.50;99.90;;;;;;5015766;28;20203;-88
2021/03/10 11:24:39;;;;;;;25.23;16.37;;;9.60;99.90;;;;;;4996975;28;20456;-86
2021/03/10 11:27:05;;;;;;;28.77;16.23;;;9.70;99.90;;;;;;4996438;28;20219;-86
2021/03/10 11:29:30;;;;;;;20.20;14.00;;;9.90;96.20;;;;;;5014122;28;20875;-88
2021/03/10 11:31:56;;;;;;;21.70;12.10;;;9.70;1.00;;;;;;5014375;28;20489;-88
2021/03/10 11:34:22;;;;;;;27.77;15.90;;;9.70;1.00;;;;;;5013886;28;20171;-86
2021/03/10 11:36:48;;;;;;;23.27;13.23;;;9.50;1.00;;;;;;5015037;28;20179;-88
2021/03/10 11:39:15;;;;;;;22.23;14.43;;;9.50;1.00;;;;;;5014936;28;20175;-89
2021/03/10 11:41:40;;;;;;;23.63;14.40;;;9.60;1.00;;;;;;4996880;28;20777;-88
2021/03/10 11:44:07;;;;;;;24.90;15.23;;;9.60;1.00;;;;;;5014868;28;20421;-87
2021/03/10 11:46:33;;;;;;;25.43;15.10;;;9.70;1.00;;;;;;5015343;28;20826;-85
2021/03/10 11:48:59;;;;;;;20.87;12.97;;;9.80;1.00;;;;;;5014558;28;20410;-88
2021/03/10 11:51:25;;;;;;;22.27;13.40;;;9.80;99.90;;;;;;5014537;28;21072;-87
2021/03/10 11:53:51;;;;;;;20.37;14.20;;;9.70;99.90;;;;;;5015212;28;20497;-87
2021/03/10 11:56:17;;;;;;;18.63;12.27;;;9.60;67.00;;;;;;4997819;28;20172;-88
2021/03/10 11:58:42;;;;;;;19.97;12.63;;;9.70;1.00;;;;;;5015064;28;20187;-87
2021/03/10 12:01:08;;;;;;;20.07;13.70;;;9.70;1.00;;;;;;5016714;28;20506;-87
2021/03/10 12:03:34;;;;;;;19.70;13.27;;;10.00;1.00;;;;;;5013790;28;20178;-86
2021/03/10 12:06:01;;;;;;;18.93;12.37;;;10.10;1.00;;;;;;5015564;28;20210;-86
2021/03/10 12:08:26;;;;;;;20.53;11.40;;;10.10;1.00;;;;;;4993761;28;20179;-86
2021/03/10 12:10:52;;;;;;;19.60;11.67;;;10.00;1.00;;;;;;4994532;28;20445;-85
2021/03/10 12:13:18;;;;;;;20.10;12.67;;;10.10;1.00;;;;;;4995607;28;20434;-85
2021/03/10 12:15:46;;;;;;;22.40;14.17;;;10.20;1.00;;;;;;5012868;28;20580;-85
2021/03/10 12:18:15;;;;;;;20.40;11.67;;;10.20;1.00;;;;;;5012601;28;20183;-84
2021/03/10 12:20:40;;;;;;;20.90;14.00;;;10.30;99.90;;;;;;4995261;28;20978;-88
2021/03/10 12:23:06;;;;;;;18.10;11.63;;;10.60;99.90;;;;;;5013611;28;20522;-85
2021/03/10 12:25:32;;;;;;;19.40;12.87;;;10.80;99.90;;;;;;5013231;28;20173;-86
2021/03/10 12:27:57;;;;;;;21.63;12.93;;;10.80;99.90;;;;;;4995144;28;20215;-86
2021/03/10 12:30:23;;;;;;;18.00;12.50;;;10.80;99.90;;;;;;5012873;28;20556;-86
2021/03/10 12:32:50;;;;;;;19.93;11.90;;;10.70;6.70;;;;;;4982058;28;20524;-88
2021/03/10 12:35:16;;;;;;;20.63;12.93;;;10.30;1.00;;;;;;4995003;28;20801;-90
2021/03/10 12:37:42;;;;;;;22.27;11.57;;;10.10;1.00;;;;;;4993745;28;20434;-87
2021/03/10 12:40:08;;;;;;;20.93;13.33;;;10.10;1.00;;;;;;4993785;28;20459;-89
2021/03/10 12:42:34;;;;;;;20.40;12.80;;;10.50;1.00;;;;;;4976622;28;20180;-87
2021/03/10 12:45:02;;;;;;;18.07;13.57;;;11.10;1.00;;;;;;4993857;28;20409;-87
2021/03/10 12:47:28;;;;;;;19.30;13.67;;;11.40;1.00;;;;;;4994078;28;20210;-87
2021/03/10 12:49:54;;;;;;;17.00;11.97;;;11.80;1.00;;;;;;4977388;28;20429;-88
2021/03/10 12:52:20;;;;;;;18.53;12.47;;;12.40;1.00;;;;;;4977930;28;20455;-91
2021/03/10 12:54:45;;;;;;;19.40;11.87;;;13.10;99.90;;;;;;4995179;28;20203;-86
2021/03/10 12:57:11;;;;;;;16.73;11.17;;;13.10;99.90;;;;;;4994414;28;20178;-87
2021/03/10 12:59:36;;;;;;;15.87;12.00;;;12.60;99.90;;;;;;4995169;28;20168;-89
2021/03/10 13:02:03;;;;;;;16.40;10.30;;;12.80;99.90;;;;;;4993689;28;20203;-88